createdAt,value
2022-10-14T00:01:09.607Z,10.67
2022-10-14T00:03:37.799Z,10.00
2022-10-14T00:06:05.976Z,10.37
2022-10-14T00:08:33.237Z,9.60
2022-10-14T00:11:04.522Z,12.13
2022-10-14T00:13:33.690Z,13.77
2022-10-14T00:16:08.328Z,12.27
2022-10-14T00:18:40.755Z,14.13
2022-10-14T00:21:08.090Z,15.13
2022-10-14T00:23:35.826Z,13.40
2022-10-14T00:26:03.070Z,15.50
2022-10-14T00:28:31.004Z,15.20
2022-10-14T00:31:00.617Z,15.90
2022-10-14T00:33:28.149Z,16.00
2022-10-14T00:35:58.391Z,13.77
2022-10-14T00:38:31.487Z,16.97
2022-10-14T00:40:58.794Z,17.90
2022-10-14T00:43:26.637Z,17.13
2022-10-14T00:45:56.623Z,14.27
2022-10-14T00:48:27.136Z,18.73
2022-10-14T00:50:57.410Z,20.03
2022-10-14T00:53:24.898Z,20.33
2022-10-14T00:55:53.922Z,20.17
2022-10-14T00:58:24.043Z,20.40
2022-10-14T01:00:51.509Z,21.03
2022-10-14T01:03:19.659Z,19.47
2022-10-14T01:05:52.768Z,21.67
2022-10-14T01:08:23.742Z,20.33
2022-10-14T01:10:54.326Z,19.10
2022-10-14T01:13:25.901Z,19.57
2022-10-14T01:16:05.289Z,20.87
2022-10-14T01:18:39.351Z,20.43
2022-10-14T01:21:12.418Z,15.60
2022-10-14T01:23:47.039Z,20.27
2022-10-14T01:26:25.983Z,22.00
2022-10-14T01:29:00.908Z,20.97
2022-10-14T01:31:31.535Z,20.33
2022-10-14T01:34:00.630Z,19.57
2022-10-14T01:36:31.235Z,21.10
2022-10-14T01:39:01.561Z,20.07
2022-10-14T01:41:31.175Z,20.97
2022-10-14T01:44:04.051Z,17.40
2022-10-14T01:46:35.620Z,21.00
2022-10-14T01:49:07.898Z,20.57
2022-10-14T01:51:39.146Z,21.67
2022-10-14T01:54:10.385Z,19.27
2022-10-14T01:56:40.515Z,17.13
2022-10-14T01:59:10.446Z,22.90
2022-10-14T02:01:39.141Z,20.50
2022-10-14T02:04:14.709Z,21.90
2022-10-14T02:06:43.978Z,22.97
2022-10-14T02:09:16.141Z,22.90
2022-10-14T02:11:49.458Z,24.10
2022-10-14T02:14:28.526Z,19.63
2022-10-14T02:17:06.217Z,18.90
2022-10-14T02:19:37.266Z,21.17
2022-10-14T02:22:08.409Z,20.90
2022-10-14T02:24:37.097Z,23.20
2022-10-14T02:27:06.347Z,24.73
2022-10-14T02:29:34.366Z,24.93
2022-10-14T02:32:03.655Z,20.73
2022-10-14T02:34:32.371Z,24.60
2022-10-14T02:37:00.289Z,24.57
2022-10-14T02:39:32.915Z,27.80
2022-10-14T02:42:00.298Z,26.10
2022-10-14T02:44:27.545Z,23.13
2022-10-14T02:47:03.866Z,19.87
2022-10-14T02:49:46.155Z,24.87
2022-10-14T02:52:14.792Z,21.83
2022-10-14T02:54:41.965Z,21.23
2022-10-14T02:57:09.279Z,25.87
2022-10-14T02:59:36.626Z,24.00
2022-10-14T03:02:05.134Z,27.90
2022-10-14T03:04:33.142Z,24.60
2022-10-14T03:07:00.626Z,24.60
2022-10-14T03:09:29.353Z,28.27
2022-10-14T03:11:58.565Z,22.50
2022-10-14T03:14:26.025Z,27.20
2022-10-14T03:16:54.014Z,26.83
2022-10-14T03:19:24.779Z,27.07
2022-10-14T03:21:54.944Z,27.93
2022-10-14T03:24:22.609Z,22.87
2022-10-14T03:27:07.433Z,27.53
2022-10-14T03:29:34.740Z,28.37
2022-10-14T03:32:12.682Z,29.83
2022-10-14T03:35:09.328Z,30.47
2022-10-14T03:37:36.603Z,26.60
2022-10-14T03:40:05.116Z,25.63
2022-10-14T03:42:35.773Z,24.30
2022-10-14T03:45:03.522Z,29.50
2022-10-14T03:47:32.494Z,28.63
2022-10-14T03:50:01.122Z,28.10
2022-10-14T03:52:34.702Z,29.57
2022-10-14T03:55:07.429Z,20.67
2022-10-14T03:57:36.854Z,30.33
2022-10-14T04:00:06.450Z,24.73
2022-10-14T04:02:42.488Z,27.67
2022-10-14T04:05:23.488Z,30.23
2022-10-14T04:07:51.492Z,31.27
2022-10-14T04:10:18.761Z,26.97
2022-10-14T04:12:53.504Z,22.83
2022-10-14T04:15:40.198Z,27.50
2022-10-14T04:18:25.068Z,26.10
2022-10-14T04:20:55.740Z,27.57
2022-10-14T04:23:25.410Z,26.07
2022-10-14T04:25:57.215Z,25.97
2022-10-14T04:28:27.043Z,24.57
2022-10-14T04:31:00.801Z,22.33
2022-10-14T04:33:34.353Z,20.00
2022-10-14T04:36:09.947Z,24.43
2022-10-14T04:38:40.626Z,23.53
2022-10-14T04:41:10.139Z,24.13
2022-10-14T04:43:52.200Z,22.80
2022-10-14T04:46:45.659Z,21.80
2022-10-14T04:49:13.333Z,21.20
2022-10-14T04:51:49.155Z,18.60
2022-10-14T04:54:22.556Z,20.03
2022-10-14T04:56:53.359Z,20.90
2022-10-14T04:59:21.974Z,20.43
2022-10-14T05:01:58.016Z,16.83
2022-10-14T05:04:34.003Z,15.67
2022-10-14T05:07:01.872Z,18.70
2022-10-14T05:09:29.726Z,15.73
2022-10-14T05:11:58.338Z,17.83
2022-10-14T05:14:36.562Z,15.80
2022-10-14T05:17:42.309Z,14.23
2022-10-14T05:20:10.149Z,11.93
2022-10-14T05:22:38.807Z,13.40
2022-10-14T05:25:06.498Z,12.90
2022-10-14T05:27:34.118Z,14.43
2022-10-14T05:30:04.951Z,13.20
2022-10-14T06:28:06.973Z,14.67
2022-10-14T06:30:34.267Z,18.07
2022-10-14T06:33:01.452Z,22.27
2022-10-14T06:35:28.671Z,19.70
2022-10-14T06:37:57.031Z,25.87
2022-10-14T06:40:24.234Z,27.53
2022-10-14T06:42:51.478Z,20.53
2022-10-14T06:45:20.039Z,24.30
2022-10-14T06:47:47.369Z,22.53
2022-10-14T06:50:14.622Z,18.10
2022-10-14T06:52:41.825Z,28.43
2022-10-14T06:55:09.140Z,24.27
2022-10-14T06:57:36.306Z,25.30
2022-10-14T07:00:03.607Z,29.23
2022-10-14T07:02:32.142Z,25.80
2022-10-14T07:04:59.508Z,25.50
2022-10-14T07:07:26.722Z,27.47
2022-10-14T07:09:53.955Z,22.93
2022-10-14T07:12:21.926Z,26.43
2022-10-14T07:14:49.203Z,24.70
2022-10-14T07:17:16.488Z,22.33
2022-10-14T07:19:45.046Z,24.40
2022-10-14T07:22:12.270Z,24.90
2022-10-14T07:24:39.450Z,22.23
2022-10-14T07:27:08.857Z,22.60
2022-10-14T07:29:36.119Z,20.27
2022-10-14T07:32:03.646Z,22.43
2022-10-14T07:34:30.833Z,22.30
2022-10-14T07:37:01.180Z,20.17
2022-10-14T07:39:28.562Z,21.63
2022-10-14T07:41:55.786Z,19.97
2022-10-14T07:44:26.460Z,19.33
2022-10-14T07:46:54.690Z,21.80
2022-10-14T07:49:26.034Z,22.63
2022-10-14T07:51:53.448Z,22.03
2022-10-14T07:54:23.402Z,21.50
2022-10-14T07:56:50.947Z,21.30
2022-10-14T07:59:18.354Z,16.07
2022-10-14T08:01:46.778Z,22.83
2022-10-14T08:04:14.265Z,21.70
2022-10-14T08:06:41.534Z,19.80
2022-10-14T08:09:09.819Z,20.23
2022-10-14T08:11:38.455Z,17.67
2022-10-14T08:14:05.762Z,19.50
2022-10-14T08:16:33.894Z,18.13
2022-10-14T08:19:02.092Z,14.73
2022-10-14T08:53:23.285Z,10.90
2022-10-14T08:55:52.241Z,9.80
2022-10-14T08:58:21.427Z,8.80
2022-10-14T09:00:51.211Z,10.53
2022-10-14T09:03:20.699Z,9.20
2022-10-14T09:05:51.861Z,9.63
2022-10-14T09:08:34.650Z,10.60
2022-10-14T09:11:08.318Z,7.83
2022-10-14T09:13:36.973Z,9.60
2022-10-14T09:16:07.042Z,11.80
2022-10-14T09:18:37.274Z,11.53
2022-10-14T09:21:40.667Z,11.80
2022-10-14T09:24:13.480Z,10.40
2022-10-14T09:26:43.220Z,10.10
2022-10-14T09:29:19.731Z,9.63
2022-10-14T09:31:47.687Z,10.40
2022-10-14T09:34:17.427Z,10.20
2022-10-14T09:36:48.368Z,10.33
2022-10-14T09:39:15.995Z,11.33
2022-10-14T09:41:45.567Z,11.37
2022-10-14T09:44:30.750Z,10.70
2022-10-14T09:46:58.957Z,10.13
2022-10-14T09:49:32.314Z,11.10
2022-10-14T09:51:59.580Z,9.47
2022-10-14T09:54:28.893Z,10.73
2022-10-14T09:57:03.059Z,11.03
2022-10-14T09:59:30.451Z,10.97
2022-10-14T10:01:58.534Z,11.53
2022-10-14T10:04:27.838Z,11.67
2022-10-14T10:06:55.953Z,10.90
2022-10-14T10:09:23.301Z,10.77
2022-10-14T10:11:50.628Z,11.53
2022-10-14T10:14:23.041Z,11.73
2022-10-14T10:19:26.594Z,11.90
2022-10-14T10:21:53.933Z,10.87
2022-10-14T10:24:24.898Z,10.63
2022-10-14T10:41:00.335Z,10.57
2022-10-14T10:44:01.816Z,11.27
2022-10-14T10:46:35.464Z,13.63
2022-10-14T10:49:05.807Z,12.83
2022-10-14T10:51:36.975Z,14.27
2022-10-14T10:54:07.822Z,13.60
2022-10-14T10:56:40.724Z,13.60
2022-10-14T10:59:20.816Z,13.63
2022-10-14T11:01:50.809Z,12.23
2022-10-14T11:04:22.974Z,11.73
2022-10-14T11:06:54.707Z,10.47
2022-10-14T11:09:27.376Z,8.30
2022-10-14T11:12:01.076Z,10.30
2022-10-14T11:14:41.295Z,13.00
2022-10-14T11:17:12.125Z,12.63
2022-10-14T11:19:44.645Z,13.33
2022-10-14T11:22:17.215Z,7.70
2022-10-14T11:24:50.259Z,6.80
2022-10-14T11:27:25.021Z,6.53
2022-10-14T11:30:04.377Z,6.47
2022-10-14T11:32:36.230Z,4.60
2022-10-14T11:35:13.049Z,4.40
2022-10-14T11:37:44.075Z,3.83
2022-10-14T11:40:18.893Z,3.40
2022-10-14T11:42:54.234Z,3.63
2022-10-14T11:45:32.459Z,4.17
2022-10-14T11:48:04.853Z,3.70
2022-10-14T11:50:37.047Z,3.33
2022-10-14T11:53:09.034Z,4.13
2022-10-14T11:55:38.893Z,3.67
2022-10-14T11:58:11.319Z,3.23
2022-10-14T12:00:42.832Z,4.17
2022-10-14T12:03:13.922Z,3.50
2022-10-14T12:05:44.309Z,2.97
2022-10-14T12:08:17.590Z,2.23
2022-10-14T12:10:46.318Z,2.17
2022-10-14T12:13:17.549Z,2.17
2022-10-14T12:15:47.887Z,2.63
2022-10-14T12:18:15.431Z,1.90
2022-10-14T12:20:47.246Z,2.57
2022-10-14T12:23:16.371Z,2.43
2022-10-14T12:25:49.442Z,2.40
2022-10-14T12:28:19.745Z,2.37
2022-10-14T12:30:47.204Z,2.60
2022-10-14T12:33:20.115Z,2.43
2022-10-14T12:35:57.019Z,3.03
2022-10-14T12:38:24.245Z,2.17
2022-10-14T12:40:51.464Z,2.67
2022-10-14T12:43:21.645Z,2.20
2022-10-14T12:45:51.699Z,1.83
2022-10-14T12:48:21.094Z,2.10
2022-10-14T12:50:49.373Z,1.90
2022-10-14T12:53:20.792Z,2.10
2022-10-14T12:55:50.149Z,2.27
2022-10-14T12:58:23.690Z,2.07
2022-10-14T13:00:54.292Z,2.00
2022-10-14T13:03:24.418Z,2.63
2022-10-14T13:05:52.416Z,2.10
2022-10-14T13:08:29.297Z,2.10
2022-10-14T13:11:09.634Z,2.10
2022-10-14T13:14:00.994Z,2.20
2022-10-14T13:16:46.879Z,2.07
2022-10-14T13:19:39.031Z,2.10
2022-10-14T13:22:28.550Z,2.07
2022-10-14T13:25:02.366Z,2.13
2022-10-14T13:27:34.608Z,1.83
2022-10-14T13:30:04.051Z,1.60
2022-10-14T13:32:34.549Z,1.60
2022-10-14T13:35:06.685Z,2.00
2022-10-14T13:37:35.405Z,1.90
2022-10-14T13:40:13.071Z,2.30
2022-10-14T13:42:40.445Z,2.63
2022-10-14T13:45:13.507Z,1.83
2022-10-14T13:47:42.114Z,2.20
2022-10-14T13:50:12.153Z,2.43
2022-10-14T13:52:39.866Z,1.93
2022-10-14T13:55:13.585Z,1.70
2022-10-14T13:58:11.009Z,2.00
2022-10-14T14:00:41.824Z,2.17
2022-10-14T14:03:15.876Z,1.60
2022-10-14T14:05:44.472Z,2.00
2022-10-14T14:11:16.164Z,2.00
2022-10-14T14:13:53.240Z,2.03
2022-10-14T14:16:24.490Z,1.50
2022-10-14T14:19:03.826Z,2.17
2022-10-14T14:21:36.771Z,2.10
2022-10-14T14:24:09.390Z,2.20
2022-10-14T14:26:37.177Z,1.83
2022-10-14T14:29:05.469Z,1.90
2022-10-14T14:32:05.151Z,2.00
2022-10-14T14:34:23.643Z,1.90
2022-10-14T14:36:55.694Z,1.83
2022-10-14T14:39:31.130Z,2.33
2022-10-14T14:41:59.407Z,2.10
2022-10-14T14:44:27.736Z,2.23
2022-10-14T14:46:57.457Z,1.90
2022-10-14T14:49:27.822Z,1.60
2022-10-14T14:51:57.114Z,1.90
2022-10-14T14:54:24.438Z,2.10
2022-10-14T14:56:54.622Z,1.90
2022-10-14T14:59:29.454Z,1.80
2022-10-14T15:01:57.574Z,1.63
2022-10-14T15:04:33.174Z,1.80
2022-10-14T15:07:02.902Z,1.57
2022-10-14T15:09:34.423Z,1.87
2022-10-14T15:12:02.118Z,1.97
2022-10-14T15:14:32.627Z,1.67
2022-10-14T15:17:02.071Z,2.00
2022-10-14T15:19:38.212Z,2.00
2022-10-14T15:22:29.615Z,1.97
2022-10-14T15:25:17.157Z,2.03
2022-10-14T15:28:28.048Z,1.90
2022-10-14T15:30:55.327Z,2.10
2022-10-14T15:33:23.390Z,2.33
2022-10-14T15:35:54.825Z,2.47
2022-10-14T15:38:23.655Z,2.13
2022-10-14T15:40:51.336Z,2.63
2022-10-14T15:43:21.954Z,2.20
2022-10-14T15:45:50.242Z,2.23
2022-10-14T15:48:19.805Z,2.10
2022-10-14T15:50:47.939Z,2.10
2022-10-14T15:53:15.607Z,2.80
2022-10-14T15:55:45.973Z,2.80
2022-10-14T15:58:13.283Z,3.10
2022-10-14T16:00:40.494Z,2.90
2022-10-14T16:03:07.878Z,2.57
2022-10-14T16:05:35.067Z,2.03
2022-10-14T16:08:06.269Z,2.70
2022-10-14T16:10:34.465Z,2.50
2022-10-14T16:13:03.498Z,2.67
2022-10-14T16:15:32.930Z,2.40
2022-10-14T16:18:00.315Z,2.30
2022-10-14T16:20:27.535Z,2.10
2022-10-14T16:22:55.079Z,1.87
2022-10-14T16:25:25.130Z,2.50
2022-10-14T16:27:55.807Z,2.60
2022-10-14T16:30:31.595Z,2.83
2022-10-14T16:32:58.955Z,2.90
2022-10-14T16:35:26.326Z,3.17
2022-10-14T16:37:53.658Z,2.77
2022-10-14T16:40:20.931Z,3.87
2022-10-14T16:42:48.213Z,2.83
2022-10-14T16:45:15.879Z,3.47
2022-10-14T16:47:44.629Z,3.50
2022-10-14T16:50:12.098Z,3.73
2022-10-14T16:52:39.539Z,4.30
2022-10-14T16:55:08.543Z,3.00
2022-10-14T16:57:47.650Z,3.27
2022-10-14T17:00:15.639Z,3.90
2022-10-14T17:02:43.007Z,4.23
2022-10-14T17:05:11.685Z,3.57
2022-10-14T17:07:38.886Z,3.40
2022-10-14T17:10:06.697Z,4.23
2022-10-14T17:12:33.894Z,4.47
2022-10-14T17:15:01.231Z,4.30
2022-10-14T17:17:28.415Z,4.63
2022-10-14T17:19:55.643Z,5.63
2022-10-14T17:22:24.586Z,4.03
2022-10-14T17:24:52.112Z,4.30
2022-10-14T17:27:19.286Z,4.43
2022-10-14T17:29:47.334Z,5.83
2022-10-14T17:32:14.518Z,5.33
2022-10-14T17:34:41.714Z,5.13
2022-10-14T17:39:42.517Z,5.73
2022-10-14T17:42:09.708Z,6.00
2022-10-14T17:44:40.105Z,5.30
2022-10-14T17:47:10.885Z,5.33
2022-10-14T17:49:38.232Z,6.10
2022-10-14T17:52:05.442Z,6.73
2022-10-14T17:54:32.676Z,6.70
2022-10-14T17:57:01.206Z,7.27
2022-10-14T17:59:28.398Z,6.93
2022-10-14T18:02:03.871Z,7.60
2022-10-14T18:04:31.632Z,6.20
2022-10-14T18:06:58.920Z,8.90
2022-10-14T18:09:26.105Z,8.03
2022-10-14T18:12:08.225Z,9.20
2022-10-14T18:14:38.726Z,10.13
2022-10-14T18:17:05.923Z,10.33
2022-10-14T18:19:33.472Z,10.97
2022-10-14T18:22:00.830Z,10.40
2022-10-14T18:24:28.159Z,10.77
2022-10-14T18:26:55.338Z,10.50
2022-10-14T18:29:24.052Z,10.30
2022-10-14T18:34:19.705Z,10.70
2022-10-14T18:36:46.891Z,10.43
2022-10-14T18:39:14.081Z,9.70
2022-10-14T18:41:41.326Z,10.60
2022-10-14T18:44:08.498Z,11.33
2022-10-14T18:46:36.769Z,10.30
2022-10-14T18:49:06.061Z,7.67
2022-10-14T18:51:34.126Z,9.87
2022-10-14T18:54:02.521Z,10.00
2022-10-14T18:56:30.707Z,10.53
2022-10-14T18:58:58.838Z,10.17
2022-10-14T19:01:26.513Z,10.83
2022-10-14T19:03:54.381Z,11.83
2022-10-14T19:06:23.373Z,10.80
2022-10-14T19:08:51.076Z,10.37
2022-10-14T19:11:19.018Z,10.83
2022-10-14T19:13:53.794Z,11.60
2022-10-14T19:16:22.986Z,10.57
2022-10-14T19:18:52.504Z,10.20
2022-10-14T19:21:19.791Z,9.50
2022-10-14T19:23:48.470Z,12.13
2022-10-14T19:28:49.212Z,12.07
2022-10-14T19:31:17.449Z,11.53
2022-10-14T19:33:45.481Z,11.77
2022-10-14T19:36:13.527Z,12.03
2022-10-14T19:38:40.872Z,10.07
2022-10-14T19:41:09.478Z,11.73
2022-10-14T19:43:36.782Z,10.57
2022-10-14T19:46:05.802Z,11.60
2022-10-14T19:48:33.083Z,11.67
2022-10-14T19:51:06.010Z,12.00
2022-10-14T19:53:34.385Z,11.83
2022-10-14T19:56:04.955Z,12.80
2022-10-14T19:58:33.636Z,13.90
2022-10-14T20:01:08.903Z,11.47
2022-10-14T20:03:46.035Z,12.23
2022-10-14T20:06:13.746Z,12.77
2022-10-14T20:08:41.270Z,14.00
2022-10-14T20:11:09.631Z,13.30
2022-10-14T20:13:38.273Z,12.17
2022-10-14T20:16:06.602Z,11.97
2022-10-14T20:18:34.042Z,10.47
2022-10-14T20:21:01.486Z,10.77
2022-10-14T20:23:28.792Z,10.27
2022-10-14T20:26:00.241Z,9.27
2022-10-14T20:28:30.438Z,9.17
2022-10-14T20:30:59.405Z,9.23
2022-10-14T20:33:26.613Z,9.07
2022-10-14T20:36:00.183Z,9.60
2022-10-14T20:38:27.597Z,9.57
2022-10-14T20:40:54.811Z,8.50
2022-10-14T20:43:22.055Z,9.70
2022-10-14T20:45:49.291Z,9.57
2022-10-14T20:48:18.023Z,9.70
2022-10-14T20:50:45.282Z,9.30
2022-10-14T20:53:12.534Z,9.10
2022-10-14T20:55:39.766Z,9.20
2022-10-14T20:58:08.079Z,9.33
2022-10-14T21:00:35.618Z,9.20
2022-10-14T21:03:02.822Z,10.67
2022-10-14T21:05:31.406Z,8.63
2022-10-14T21:07:58.623Z,10.53
2022-10-14T21:10:25.825Z,11.33
2022-10-14T21:12:53.102Z,9.60
2022-10-14T21:15:20.334Z,11.43
2022-10-14T21:17:48.049Z,10.93
2022-10-14T21:20:15.454Z,11.60
2022-10-14T21:22:44.051Z,11.43
2022-10-14T21:25:11.271Z,11.97
2022-10-14T21:27:40.039Z,9.97
2022-10-14T21:30:13.278Z,11.47
2022-10-14T21:32:40.615Z,11.33
2022-10-14T21:35:08.421Z,11.27
2022-10-14T21:37:35.648Z,11.43
2022-10-14T21:40:04.423Z,11.27
2022-10-14T21:42:31.777Z,12.57
2022-10-14T21:44:59.266Z,12.83
2022-10-14T22:18:20.498Z,15.80
2022-10-14T22:20:47.794Z,16.40
2022-10-14T22:23:15.001Z,16.73
2022-10-14T22:25:42.203Z,15.87
2022-10-14T22:28:09.550Z,17.03
2022-10-14T22:30:36.860Z,16.63
2022-10-14T22:35:33.426Z,14.63
2022-10-14T22:38:00.611Z,16.67
2022-10-14T22:40:27.853Z,18.50
2022-10-14T22:42:56.201Z,17.63
2022-10-14T22:45:27.822Z,18.20
2022-10-14T22:47:55.042Z,18.13
2022-10-14T22:50:22.295Z,17.70
2022-10-14T22:52:50.882Z,18.20
2022-10-14T22:55:18.230Z,18.67
2022-10-14T22:57:45.501Z,17.87
2022-10-14T23:00:14.770Z,18.47
2022-10-14T23:02:42.145Z,17.77
2022-10-14T23:05:09.826Z,17.67
2022-10-14T23:07:37.343Z,19.60
2022-10-14T23:10:06.526Z,17.83
2022-10-14T23:12:39.330Z,16.23
2022-10-14T23:15:14.782Z,19.20
2022-10-14T23:17:42.099Z,17.27
2022-10-14T23:20:10.223Z,16.30
2022-10-14T23:22:37.437Z,16.17
2022-10-14T23:25:06.618Z,15.23
2022-10-14T23:27:36.221Z,16.53
2022-10-14T23:30:04.063Z,16.47
2022-10-14T23:32:31.318Z,16.23
2022-10-14T23:34:58.570Z,15.70
2022-10-14T23:37:26.188Z,16.70
2022-10-14T23:39:53.669Z,17.17
2022-10-14T23:42:22.575Z,17.37
2022-10-14T23:44:49.834Z,19.07
2022-10-14T23:47:17.056Z,18.20
2022-10-14T23:49:44.438Z,16.77
2022-10-14T23:52:11.639Z,16.10
2022-10-14T23:54:38.827Z,17.70
2022-10-14T23:57:06.168Z,17.50
2022-10-14T23:59:34.722Z,16.80
